Time;durP1;ratioP1;P1;durP2;ratioP2;P2;SDS_P1;SDS_P2;PMS_P1;PMS_P2;Temp;Humidity;BMP_temperature;BMP_pressure;BME280_temperature;BME280_humidity;BME280_pressure;Samples;Min_cycle;Max_cycle;Signal;HPM_P1;HPM_P2
2022/05/18 00:01:49;;;;;;;0.43;0.13;;;17.10;99.90;;;;;;5115179;28;20654;-85
2022/05/18 00:04:23;;;;;;;0.32;0.10;;;17.00;99.90;;;;;;5120483;27;20071;-85
2022/05/18 00:06:49;;;;;;;0.38;0.20;;;17.00;99.90;;;;;;5121032;28;20027;-85
2022/05/18 00:09:14;;;;;;;0.70;0.40;;;17.00;99.90;;;;;;5102318;28;20085;-87
2022/05/18 00:11:43;;;;;;;0.57;0.20;;;17.00;99.90;;;;;;5117657;28;20118;-90
2022/05/18 00:14:08;;;;;;;0.45;0.20;;;16.90;99.90;;;;;;5132410;27;20373;-87
2022/05/18 00:16:35;;;;;;;0.17;0.10;;;16.90;99.90;;;;;;5118035;28;20035;-86
2022/05/18 00:19:21;;;;;;;0.75;0.38;;;16.80;99.90;;;;;;5122322;27;20153;-88
2022/05/18 00:21:57;;;;;;;0.60;0.30;;;16.80;99.90;;;;;;5123152;27;20387;-85
2022/05/18 00:24:26;;;;;;;0.57;0.20;;;16.80;99.90;;;;;;5119744;27;20136;-87
2022/05/18 00:27:03;;;;;;;0.70;0.43;;;16.80;99.90;;;;;;5121969;27;20027;-87
2022/05/18 00:29:47;;;;;;;0.17;0.10;;;16.80;99.90;;;;;;5123716;27;20019;-86
2022/05/18 00:32:25;;;;;;;0.30;0.10;;;16.80;99.90;;;;;;5104025;27;20024;-87
2022/05/18 00:34:53;;;;;;;0.50;0.20;;;16.70;99.90;;;;;;5120873;27;20019;-86
2022/05/18 00:37:24;;;;;;;0.17;0.10;;;16.70;99.90;;;;;;5125096;27;20139;-87
2022/05/18 00:40:12;;;;;;;0.28;0.10;;;16.70;99.90;;;;;;5104687;27;20118;-87
2022/05/18 00:42:46;;;;;;;0.38;0.10;;;16.70;99.90;;;;;;5122509;27;20031;-86
2022/05/18 00:45:17;;;;;;;0.28;0.10;;;16.70;99.90;;;;;;5121453;27;20058;-86
2022/05/18 00:47:53;;;;;;;0.40;0.20;;;16.70;99.90;;;;;;5107154;27;20027;-86
2022/05/18 00:50:31;;;;;;;0.57;0.20;;;16.70;99.90;;;;;;5124171;27;20031;-88
2022/05/18 00:53:20;;;;;;;0.40;0.10;;;16.70;99.90;;;;;;5125715;27;20031;-86
2022/05/18 00:55:52;;;;;;;1.48;0.63;;;16.70;99.90;;;;;;5125284;27;20063;-85
2022/05/18 00:58:20;;;;;;;0.60;0.20;;;16.60;99.90;;;;;;5122287;27;20032;-86
2022/05/18 01:00:48;;;;;;;0.10;0.10;;;16.60;99.90;;;;;;5123069;27;20043;-86
2022/05/18 01:03:19;;;;;;;0.40;0.20;;;16.60;99.90;;;;;;5120836;27;20420;-87
2022/05/18 01:05:51;;;;;;;0.43;0.20;;;16.50;99.90;;;;;;5117686;27;20024;-86
2022/05/18 01:08:36;;;;;;;0.10;0.10;;;16.50;99.90;;;;;;5123687;27;20023;-86
2022/05/18 01:11:01;;;;;;;0.35;0.10;;;16.50;99.90;;;;;;5139764;27;20055;-89
2022/05/18 01:13:30;;;;;;;0.10;0.10;;;16.40;99.90;;;;;;5122624;27;20051;-89
2022/05/18 01:15:56;;;;;;;0.32;0.13;;;16.40;99.90;;;;;;5119145;27;20027;-88
2022/05/18 01:18:22;;;;;;;0.20;0.10;;;16.30;99.90;;;;;;5118514;27;20050;-87
2022/05/18 01:20:52;;;;;;;0.47;0.17;;;16.30;99.90;;;;;;5120396;27;20026;-85
2022/05/18 01:23:42;;;;;;;0.45;0.17;;;16.20;99.90;;;;;;5118489;27;20127;-85
2022/05/18 01:26:19;;;;;;;0.35;0.20;;;16.20;99.90;;;;;;5121266;27;20020;-86
2022/05/18 01:29:05;;;;;;;1.67;0.45;;;16.30;99.90;;;;;;5122453;27;20027;-87
2022/05/18 01:31:51;;;;;;;0.10;0.10;;;16.20;99.90;;;;;;5127494;27;20100;-87
2022/05/18 01:34:21;;;;;;;0.13;0.10;;;16.20;99.90;;;;;;5120579;27;20500;-87
2022/05/18 01:36:52;;;;;;;0.40;0.20;;;16.20;99.90;;;;;;5119055;27;20019;-86
2022/05/18 01:39:50;;;;;;;0.60;0.25;;;16.20;99.90;;;;;;5125753;27;20042;-86
2022/05/18 01:42:25;;;;;;;0.35;0.10;;;16.20;99.90;;;;;;5117619;27;20031;-85
2022/05/18 01:44:51;;;;;;;0.25;0.10;;;16.20;99.90;;;;;;5119272;27;20118;-84
2022/05/18 01:47:16;;;;;;;0.28;0.15;;;16.10;99.90;;;;;;5106275;27;20110;-85
2022/05/18 01:49:43;;;;;;;0.52;0.20;;;16.10;99.90;;;;;;5119330;27;20062;-87
2022/05/18 01:52:10;;;;;;;0.17;0.10;;;16.10;99.90;;;;;;5118545;27;20031;-85
2022/05/18 01:54:45;;;;;;;0.35;0.10;;;16.10;99.90;;;;;;5106626;27;20019;-85
2022/05/18 01:57:12;;;;;;;0.70;0.20;;;16.00;99.90;;;;;;5119927;27;20019;-86
2022/05/18 01:59:41;;;;;;;0.28;0.15;;;16.00;99.90;;;;;;5116595;27;20043;-88
2022/05/18 02:02:10;;;;;;;0.38;0.20;;;15.90;99.90;;;;;;5124067;27;20139;-89
2022/05/18 02:04:41;;;;;;;0.45;0.20;;;15.90;99.90;;;;;;5121912;27;20026;-86
2022/05/18 02:07:07;;;;;;;0.30;0.15;;;15.80;99.90;;;;;;5103359;27;20074;-86
2022/05/18 02:09:33;;;;;;;0.20;0.10;;;15.80;99.90;;;;;;5106843;27;20050;-86
2022/05/18 02:11:58;;;;;;;0.35;0.20;;;15.80;99.90;;;;;;5119041;27;20456;-85
2022/05/18 02:14:26;;;;;;;0.63;0.20;;;15.70;99.90;;;;;;5103623;27;20353;-86
2022/05/18 02:16:55;;;;;;;0.85;0.32;;;15.70;99.90;;;;;;5121816;27;20032;-87
2022/05/18 02:19:21;;;;;;;0.45;0.15;;;15.70;99.90;;;;;;5122293;27;20406;-86
2022/05/18 02:21:46;;;;;;;0.38;0.20;;;15.60;99.90;;;;;;5116880;27;20016;-86
2022/05/18 02:24:20;;;;;;;0.35;0.32;;;15.70;99.90;;;;;;5121095;27;20798;-86
2022/05/18 02:26:48;;;;;;;0.45;0.25;;;15.60;99.90;;;;;;5120646;27;20031;-86
2022/05/18 02:29:14;;;;;;;0.35;0.20;;;15.60;99.90;;;;;;5116897;27;20051;-86
2022/05/18 02:31:47;;;;;;;0.38;0.20;;;15.60;99.90;;;;;;5123251;27;20184;-86
2022/05/18 02:34:36;;;;;;;;;;;;;;;;;;;;;
2022/05/18 02:37:03;;;;;;;0.85;0.40;;;15.60;99.90;;;;;;5121945;27;20027;-87
2022/05/18 02:39:30;;;;;;;0.28;0.20;;;15.60;99.90;;;;;;5119219;27;20056;-85
2022/05/18 02:42:01;;;;;;;0.40;0.20;;;15.50;99.90;;;;;;5105650;27;20027;-86
2022/05/18 02:44:26;;;;;;;0.65;0.20;;;15.50;99.90;;;;;;5115592;27;20497;-87
2022/05/18 02:46:57;;;;;;;0.52;0.20;;;15.40;99.90;;;;;;5114638;27;20100;-86
2022/05/18 02:49:26;;;;;;;0.20;0.13;;;15.30;99.90;;;;;;5122220;27;20323;-87
2022/05/18 02:51:59;;;;;;;0.30;0.20;;;15.30;99.90;;;;;;5117611;27;20033;-89
2022/05/18 02:57:35;;;;;;;0.30;0.20;;;15.10;99.90;;;;;;5117059;27;20308;-87
2022/05/18 03:00:10;;;;;;;;;;;;;;;;;;;;;
2022/05/18 03:02:38;;;;;;;0.32;0.20;;;15.00;99.90;;;;;;5120069;27;20023;-86
2022/05/18 03:05:10;;;;;;;0.52;0.20;;;14.90;99.90;;;;;;5119414;27;20027;-85
2022/05/18 03:07:36;;;;;;;0.28;0.10;;;14.80;99.90;;;;;;5118407;27;20042;-86
2022/05/18 03:10:02;;;;;;;0.60;0.20;;;14.80;99.90;;;;;;5114963;27;20027;-86
2022/05/18 03:12:34;;;;;;;0.17;0.15;;;14.80;99.90;;;;;;5115410;27;20076;-87
2022/05/18 03:15:02;;;;;;;0.60;0.20;;;14.80;99.90;;;;;;5115418;27;20667;-86
2022/05/18 03:17:32;;;;;;;0.38;0.20;;;14.80;99.90;;;;;;5102708;27;20447;-87
2022/05/18 03:19:58;;;;;;;0.28;0.20;;;14.70;99.90;;;;;;5119235;27;20052;-85
2022/05/18 03:25:13;;;;;;;0.57;0.20;;;14.70;99.90;;;;;;5120939;27;20058;-86
2022/05/18 03:27:45;;;;;;;0.35;0.20;;;14.60;99.90;;;;;;5115326;27;20029;-86
2022/05/18 03:30:21;;;;;;;0.38;0.20;;;14.60;99.90;;;;;;5123526;27;20027;-86
2022/05/18 03:32:50;;;;;;;0.22;0.20;;;14.50;99.90;;;;;;5119002;27;20056;-89
2022/05/18 03:35:26;;;;;;;;;;;;;;;;;;;;;
2022/05/18 03:37:58;;;;;;;0.35;0.20;;;14.40;99.90;;;;;;5115126;27;20490;-86
2022/05/18 03:40:44;;;;;;;0.52;0.20;;;14.40;99.90;;;;;;5121096;27;21587;-88
2022/05/18 03:43:10;;;;;;;0.43;0.20;;;14.40;99.90;;;;;;5116917;27;20471;-87
2022/05/18 03:45:36;;;;;;;0.47;0.20;;;14.30;99.90;;;;;;5120173;27;20127;-86
2022/05/18 03:48:11;;;;;;;0.52;0.20;;;14.30;99.90;;;;;;5117263;27;20043;-86
2022/05/18 03:50:45;;;;;;;0.43;0.20;;;14.30;99.90;;;;;;5117393;27;20405;-87
2022/05/18 03:53:21;;;;;;;0.50;0.20;;;14.30;99.90;;;;;;5115551;27;20027;-88
2022/05/18 03:58:43;;;;;;;0.77;0.30;;;14.20;99.90;;;;;;5126863;27;20051;-86
2022/05/18 04:01:12;;;;;;;0.38;0.20;;;14.20;99.90;;;;;;5122307;28;20138;-87
2022/05/18 04:04:14;;;;;;;;;;;;;;;;;;;;;
2022/05/18 04:06:52;;;;;;;0.20;0.10;;;14.30;99.90;;;;;;5115614;28;20797;-88
2022/05/18 04:09:32;;;;;;;;;;;;;;;;;;;;;
2022/05/18 04:12:10;;;;;;;0.17;0.17;;;14.40;99.90;;;;;;5119792;28;20019;-89
2022/05/18 04:14:44;;;;;;;0.65;0.30;;;14.40;99.90;;;;;;5102028;28;20081;-87
2022/05/18 04:17:12;;;;;;;0.10;0.10;;;14.40;99.90;;;;;;5117299;28;20019;-87
2022/05/18 04:19:40;;;;;;;0.43;0.20;;;14.40;99.90;;;;;;5132248;27;21309;-85
2022/05/18 04:22:06;;;;;;;0.28;0.20;;;14.30;99.90;;;;;;5115795;28;20028;-84
2022/05/18 04:24:35;;;;;;;0.60;0.22;;;14.40;99.90;;;;;;5121222;28;20050;-86
2022/05/18 04:27:06;;;;;;;0.70;0.20;;;14.40;99.90;;;;;;5130990;28;20027;-84
2022/05/18 04:29:32;;;;;;;0.23;0.20;;;14.40;99.90;;;;;;5113847;28;20023;-84
2022/05/18 04:31:58;;;;;;;0.40;0.20;;;14.50;99.90;;;;;;5112172;28;20916;-88
2022/05/18 04:34:26;;;;;;;0.50;0.30;;;14.50;99.90;;;;;;5122349;27;20023;-83
2022/05/18 04:36:54;;;;;;;0.20;0.20;;;14.50;99.90;;;;;;5123231;28;20466;-86
2022/05/18 04:39:20;;;;;;;0.70;0.20;;;14.50;99.90;;;;;;5120320;28;20478;-89
2022/05/18 04:41:51;;;;;;;0.28;0.20;;;14.60;99.90;;;;;;5123288;28;20035;-85
2022/05/18 04:44:17;;;;;;;0.55;0.28;;;14.70;99.90;;;;;;5108046;28;20031;-84
2022/05/18 04:46:43;;;;;;;0.68;0.25;;;14.70;99.90;;;;;;5121073;27;20102;-86
2022/05/18 04:49:12;;;;;;;0.40;0.20;;;14.80;99.90;;;;;;5116753;28;20154;-87
2022/05/18 04:51:41;;;;;;;0.95;0.30;;;14.80;99.90;;;;;;5121163;28;20034;-83
2022/05/18 04:54:07;;;;;;;0.38;0.17;;;14.90;99.90;;;;;;5107689;28;20094;-85
2022/05/18 04:56:32;;;;;;;0.63;0.20;;;15.00;99.90;;;;;;5114884;28;20049;-84
2022/05/18 04:58:58;;;;;;;0.40;0.20;;;15.00;99.90;;;;;;5102571;28;20043;-85
2022/05/18 05:01:25;;;;;;;0.77;0.30;;;15.10;99.90;;;;;;5103625;28;20043;-84
2022/05/18 05:03:51;;;;;;;0.32;0.20;;;15.10;99.90;;;;;;5121505;28;20031;-86
2022/05/18 05:06:19;;;;;;;0.20;0.20;;;15.20;99.90;;;;;;5121924;27;20117;-85
2022/05/18 05:08:45;;;;;;;0.47;0.20;;;15.20;99.90;;;;;;5110439;27;20024;-84
2022/05/18 05:11:13;;;;;;;0.38;0.20;;;15.30;99.90;;;;;;5123995;27;20057;-85
2022/05/18 05:13:41;;;;;;;0.47;0.20;;;15.40;99.90;;;;;;5126005;27;20446;-84
2022/05/18 05:16:18;;;;;;;0.47;0.20;;;15.40;99.90;;;;;;5123242;27;20015;-87
2022/05/18 05:18:44;;;;;;;0.93;0.38;;;15.60;99.90;;;;;;5122813;27;20039;-85
2022/05/18 05:21:10;;;;;;;0.40;0.20;;;15.60;99.90;;;;;;5123420;27;20038;-85
2022/05/18 05:23:36;;;;;;;0.88;0.55;;;15.70;99.90;;;;;;5127716;27;20371;-85
2022/05/18 05:26:02;;;;;;;0.63;0.20;;;15.90;99.90;;;;;;5106893;27;20448;-83
2022/05/18 05:28:30;;;;;;;0.82;0.30;;;16.00;99.90;;;;;;5124229;27;20039;-85
2022/05/18 05:31:07;;;;;;;0.20;0.10;;;16.10;99.90;;;;;;5123600;27;20043;-85
2022/05/18 05:33:35;;;;;;;0.38;0.10;;;16.20;99.90;;;;;;5127007;27;20106;-84
2022/05/18 05:36:01;;;;;;;0.47;0.20;;;16.30;99.90;;;;;;5104890;27;20035;-85
2022/05/18 05:38:27;;;;;;;0.47;0.20;;;16.50;99.90;;;;;;5123790;27;20027;-84
2022/05/18 05:40:54;;;;;;;0.47;0.20;;;16.70;99.90;;;;;;5124626;27;20221;-84
2022/05/18 05:43:25;;;;;;;0.57;0.40;;;16.80;99.90;;;;;;5127384;27;20038;-85
2022/05/18 05:46:00;;;;;;;0.60;0.20;;;17.10;99.90;;;;;;5126214;27;20019;-83
2022/05/18 05:48:27;;;;;;;0.28;0.17;;;17.30;99.90;;;;;;5118805;27;20072;-84
2022/05/18 05:50:52;;;;;;;0.13;0.10;;;17.60;99.90;;;;;;5126200;27;20034;-86
2022/05/18 05:53:19;;;;;;;0.38;0.10;;;17.90;99.90;;;;;;5124236;27;20031;-84
2022/05/18 05:55:54;;;;;;;0.45;0.28;;;18.20;99.90;;;;;;5124952;27;20035;-84
2022/05/18 05:58:23;;;;;;;0.20;0.10;;;18.60;99.90;;;;;;5125487;27;20030;-84
2022/05/18 06:00:48;;;;;;;0.15;0.10;;;19.00;99.90;;;;;;5120298;27;20104;-84
2022/05/18 06:03:16;;;;;;;0.52;0.30;;;19.20;99.90;;;;;;5128245;27;20434;-85
2022/05/18 06:05:42;;;;;;;0.52;0.20;;;19.50;99.90;;;;;;5144786;27;20029;-85
2022/05/18 06:08:23;;;;;;;0.40;0.20;;;19.70;99.90;;;;;;5121522;27;20028;-86
2022/05/18 06:10:48;;;;;;;0.28;0.25;;;20.10;99.90;;;;;;5128624;27;20031;-84
2022/05/18 06:13:16;;;;;;;0.57;0.20;;;20.40;99.90;;;;;;5124527;27;20352;-85
2022/05/18 06:15:45;;;;;;;0.10;0.10;;;20.70;99.90;;;;;;5120069;27;20031;-83
2022/05/18 06:18:16;;;;;;;0.10;0.10;;;20.80;99.90;;;;;;5126701;27;20064;-83
2022/05/18 06:20:52;;;;;;;;;;;;;;;;;;;;;
2022/05/18 06:23:18;;;;;;;0.10;0.10;;;21.40;99.90;;;;;;5128176;27;20033;-83
2022/05/18 06:25:47;;;;;;;0.30;0.10;;;21.70;99.90;;;;;;5118989;27;20034;-84
2022/05/18 06:28:13;;;;;;;0.30;0.20;;;22.30;99.90;;;;;;5116977;27;20027;-79
2022/05/18 06:30:40;;;;;;;0.10;0.05;;;22.70;99.90;;;;;;5123238;27;20031;-82
2022/05/18 06:33:06;;;;;;;0.10;0.10;;;22.90;99.90;;;;;;5124581;27;20462;-76
2022/05/18 06:35:31;;;;;;;0.20;0.20;;;23.20;99.90;;;;;;5118177;27;20072;-77
2022/05/18 06:37:57;;;;;;;0.00;0.00;;;23.10;99.90;;;;;;5126310;27;20036;-77
2022/05/18 06:43:08;;;;;;;0.10;0.10;;;23.90;99.90;;;;;;5119116;27;20422;-77
2022/05/18 06:45:33;;;;;;;0.88;0.55;;;23.80;99.90;;;;;;5103320;27;20028;-76
2022/05/18 06:48:00;;;;;;;0.03;0.03;;;24.10;99.90;;;;;;5127759;27;20550;-75
2022/05/18 06:50:26;;;;;;;0.13;0.10;;;24.60;99.90;;;;;;5134421;27;20034;-75
2022/05/18 06:52:52;;;;;;;0.05;0.05;;;24.80;99.90;;;;;;5126735;27;20027;-75
2022/05/18 06:55:18;;;;;;;0.10;0.10;;;24.90;99.90;;;;;;5116274;27;20040;-75
2022/05/18 06:57:43;;;;;;;0.10;0.10;;;24.90;99.90;;;;;;5124868;27;20023;-75
2022/05/18 07:00:10;;;;;;;0.00;0.00;;;25.30;99.90;;;;;;5133077;27;20122;-75
2022/05/18 07:02:35;;;;;;;0.10;0.10;;;25.70;99.90;;;;;;5132616;27;20043;-75
2022/05/18 07:05:01;;;;;;;0.10;0.10;;;25.90;99.90;;;;;;5121705;27;20027;-75
2022/05/18 07:07:27;;;;;;;0.20;0.10;;;26.20;99.90;;;;;;5124236;27;20080;-75
2022/05/18 07:09:52;;;;;;;0.20;0.10;;;26.10;99.90;;;;;;5128792;27;20032;-75
2022/05/18 07:12:18;;;;;;;0.47;0.40;;;26.40;99.90;;;;;;5120831;27;20035;-75
2022/05/18 07:14:44;;;;;;;0.17;0.10;;;26.30;99.90;;;;;;5133857;27;20030;-75
2022/05/18 07:17:09;;;;;;;0.00;0.00;;;26.60;99.90;;;;;;5113852;28;20399;-75
2022/05/18 07:19:36;;;;;;;0.10;0.10;;;26.60;99.90;;;;;;5116013;27;20039;-75
2022/05/18 07:22:03;;;;;;;0.30;0.30;;;27.00;99.90;;;;;;5114198;27;20028;-76
2022/05/18 07:24:29;;;;;;;0.20;0.10;;;26.90;99.90;;;;;;5118882;27;20031;-75
2022/05/18 07:26:54;;;;;;;0.00;0.00;;;26.80;97.10;;;;;;5113885;28;20106;-75
2022/05/18 07:29:20;;;;;;;0.65;0.38;;;27.20;99.90;;;;;;5128202;27;20461;-75
2022/05/18 07:34:30;;;;;;;0.10;0.10;;;27.50;99.70;;;;;;5133749;27;20115;-74
2022/05/18 07:36:56;;;;;;;0.08;0.00;;;27.10;96.60;;;;;;5116060;27;20059;-74
2022/05/18 07:39:22;;;;;;;0.20;0.10;;;27.50;95.30;;;;;;5131325;27;20035;-74
2022/05/18 07:41:48;;;;;;;0.08;0.00;;;27.40;94.30;;;;;;5121847;27;20043;-74
2022/05/18 07:44:14;;;;;;;0.30;0.20;;;27.90;99.90;;;;;;5109555;27;20134;-74
2022/05/18 07:46:40;;;;;;;0.25;0.17;;;28.00;95.70;;;;;;5133115;27;20503;-74
2022/05/18 07:49:06;;;;;;;0.25;0.25;;;28.10;81.90;;;;;;5129434;27;20038;-74
2022/05/18 07:51:32;;;;;;;0.00;0.00;;;28.50;95.50;;;;;;5124547;27;20028;-74
2022/05/18 07:53:59;;;;;;;0.05;0.05;;;28.30;92.20;;;;;;5113467;28;20023;-74
2022/05/18 07:56:24;;;;;;;0.00;0.00;;;28.70;84.50;;;;;;5120271;28;20028;-74
2022/05/18 07:58:50;;;;;;;0.08;0.08;;;29.30;92.70;;;;;;5124362;27;20046;-74
2022/05/18 08:01:16;;;;;;;0.20;0.10;;;29.40;72.90;;;;;;5128616;27;20111;-74
2022/05/18 08:03:41;;;;;;;0.00;0.00;;;29.20;70.10;;;;;;5132171;28;20031;-75
2022/05/18 08:06:09;;;;;;;0.30;0.30;;;29.40;70.80;;;;;;5133963;28;20442;-74
2022/05/18 08:08:34;;;;;;;0.10;0.10;;;30.00;82.50;;;;;;5125524;28;20031;-75
2022/05/18 08:16:30;;;;;;;0.55;0.30;;;29.80;60.50;;;;;;5134291;28;20049;-74
2022/05/18 08:18:57;;;;;;;0.17;0.10;;;29.90;63.20;;;;;;5122650;28;20217;-75
2022/05/18 08:21:23;;;;;;;0.00;0.00;;;30.10;64.50;;;;;;5132660;28;20031;-74
2022/05/18 08:23:49;;;;;;;0.10;0.10;;;30.40;64.40;;;;;;5131337;28;20019;-74
2022/05/18 08:26:15;;;;;;;0.38;0.20;;;29.90;60.50;;;;;;5116372;28;20038;-75
2022/05/18 08:28:41;;;;;;;0.00;0.00;;;29.80;63.30;;;;;;5130802;28;20382;-77
2022/05/18 08:31:07;;;;;;;0.10;0.05;;;29.80;62.90;;;;;;5121223;27;20039;-74
2022/05/18 08:33:33;;;;;;;0.10;0.10;;;30.70;68.50;;;;;;5128085;28;20039;-74
2022/05/18 08:36:03;;;;;;;0.03;0.03;;;30.80;62.50;;;;;;5126828;27;20031;-74
2022/05/18 08:38:29;;;;;;;0.30;0.20;;;30.80;61.80;;;;;;5116937;27;20463;-74
2022/05/18 08:41:00;;;;;;;0.35;0.17;;;30.60;61.00;;;;;;5122897;27;20038;-74
2022/05/18 08:43:31;;;;;;;0.10;0.10;;;31.10;59.90;;;;;;5129053;27;20022;-75
2022/05/18 08:46:18;;;;;;;0.17;0.05;;;30.80;60.00;;;;;;5124662;27;20389;-75
2022/05/18 08:49:04;;;;;;;0.00;0.00;;;30.70;59.20;;;;;;5120247;27;20023;-76
2022/05/18 08:51:57;;;;;;;0.00;0.00;;;30.70;61.80;;;;;;5117476;27;20035;-76
2022/05/18 08:54:33;;;;;;;0.73;0.40;;;31.10;63.30;;;;;;5118126;27;20085;-76
2022/05/18 08:57:00;;;;;;;0.25;0.15;;;30.30;60.20;;;;;;5121860;27;20031;-74
2022/05/18 08:59:31;;;;;;;0.00;0.00;;;30.10;60.50;;;;;;5118875;27;20039;-75
2022/05/18 09:01:59;;;;;;;0.20;0.10;;;29.70;61.30;;;;;;5124052;27;20048;-79
2022/05/18 09:04:45;;;;;;;0.00;0.00;;;29.40;61.90;;;;;;5134067;27;20471;-74
2022/05/18 09:07:15;;;;;;;0.20;0.10;;;30.70;65.60;;;;;;5127409;27;20541;-75
2022/05/18 09:12:36;;;;;;;0.15;0.10;;;30.70;60.80;;;;;;5128380;27;20038;-76
2022/05/18 09:15:04;;;;;;;1.38;0.52;;;30.40;60.10;;;;;;5116688;27;20115;-76
2022/05/18 09:17:42;;;;;;;0.00;0.00;;;30.30;61.00;;;;;;5131856;27;20023;-78
2022/05/18 09:20:13;;;;;;;0.10;0.10;;;30.50;61.80;;;;;;5123562;27;20039;-76
2022/05/18 09:23:06;;;;;;;0.00;0.00;;;30.50;61.40;;;;;;5131337;27;20091;-77
2022/05/18 09:25:49;;;;;;;0.52;0.20;;;30.90;60.40;;;;;;5130453;27;20031;-77
2022/05/18 09:28:22;;;;;;;0.98;0.30;;;31.10;60.90;;;;;;5123212;27;20026;-76
2022/05/18 09:31:08;;;;;;;0.17;0.10;;;31.20;63.50;;;;;;5122116;27;20027;-76
2022/05/18 09:33:40;;;;;;;0.90;0.22;;;31.80;62.00;;;;;;5124929;27;20034;-77
2022/05/18 09:36:26;;;;;;;0.00;0.00;;;32.20;59.50;;;;;;5125478;27;20023;-77
2022/05/18 09:39:08;;;;;;;0.20;0.10;;;32.00;57.50;;;;;;5120593;27;20042;-77
2022/05/18 09:41:44;;;;;;;0.00;0.00;;;31.90;56.30;;;;;;5123364;27;20045;-76
2022/05/18 09:44:25;;;;;;;0.60;0.40;;;31.70;56.50;;;;;;5128716;27;20031;-78
2022/05/18 09:46:51;;;;;;;;;;;31.90;55.40;;;;;;5126909;27;20063;-77
2022/05/18 09:49:26;;;;;;;0.08;0.08;;;32.00;55.50;;;;;;5124375;27;19907;-77
2022/05/18 09:51:54;;;;;;;0.00;0.00;;;31.70;54.10;;;;;;5125439;27;20114;-77
2022/05/18 09:54:20;;;;;;;0.05;0.05;;;32.40;55.20;;;;;;5123957;27;20481;-77
2022/05/18 09:56:57;;;;;;;0.20;0.10;;;32.30;55.90;;;;;;5132062;27;20019;-77
2022/05/18 09:59:30;;;;;;;0.00;0.00;;;32.10;53.50;;;;;;5131374;27;20114;-76
2022/05/18 10:07:32;;;;;;;0.00;0.00;;;32.60;54.50;;;;;;5121076;27;20079;-76
2022/05/18 10:10:09;;;;;;;0.10;0.10;;;32.80;55.90;;;;;;5122917;27;20551;-76
2022/05/18 10:12:58;;;;;;;0.20;0.15;;;32.70;53.70;;;;;;5124602;27;20019;-76
2022/05/18 10:15:23;;;;;;;0.10;0.10;;;33.30;54.70;;;;;;5117680;27;20509;-76
2022/05/18 10:17:55;;;;;;;0.20;0.10;;;32.70;53.20;;;;;;5126900;27;20051;-75
2022/05/18 10:20:36;;;;;;;0.38;0.10;;;33.30;53.10;;;;;;5130162;27;20023;-78
2022/05/18 10:23:04;;;;;;;0.10;0.10;;;32.90;52.00;;;;;;5119130;27;20089;-76
2022/05/18 10:25:39;;;;;;;0.45;0.20;;;33.50;53.40;;;;;;5115139;27;20035;-76
2022/05/18 10:28:24;;;;;;;0.45;0.20;;;33.40;51.20;;;;;;5126907;27;20013;-75
2022/05/18 10:31:14;;;;;;;0.10;0.10;;;33.20;49.40;;;;;;5118778;27;20087;-75
2022/05/18 10:33:41;;;;;;;0.10;0.10;;;32.60;50.70;;;;;;5123379;27;20034;-76
2022/05/18 10:36:28;;;;;;;0.00;0.00;;;33.10;50.50;;;;;;5121663;27;20031;-76
2022/05/18 10:39:01;;;;;;;0.00;0.00;;;33.60;48.20;;;;;;5125166;27;20035;-80
2022/05/18 10:41:41;;;;;;;0.20;0.20;;;33.70;49.90;;;;;;5121240;27;20057;-78
2022/05/18 10:44:14;;;;;;;0.30;0.20;;;33.30;48.60;;;;;;5117499;27;20022;-77
2022/05/18 10:46:41;;;;;;;0.00;0.00;;;33.50;49.50;;;;;;5111722;27;20042;-79
2022/05/18 10:49:29;;;;;;;0.20;0.10;;;34.10;48.50;;;;;;5124238;27;20501;-79
2022/05/18 10:52:07;;;;;;;0.17;0.10;;;33.50;47.50;;;;;;5123113;27;20035;-79
2022/05/18 10:54:33;;;;;;;0.00;0.00;;;33.90;49.40;;;;;;5124507;27;20023;-78
2022/05/18 10:57:18;;;;;;;0.32;0.20;;;33.70;49.50;;;;;;5129111;27;20110;-77
2022/05/18 10:59:55;;;;;;;0.00;0.00;;;34.10;51.40;;;;;;5135698;27;20027;-78
2022/05/18 11:02:40;;;;;;;0.10;0.10;;;34.00;50.20;;;;;;5123009;27;20490;-79
2022/05/18 11:05:27;;;;;;;0.00;0.00;;;33.80;50.30;;;;;;5116502;27;20027;-78
2022/05/18 11:07:54;;;;;;;0.30;0.25;;;33.80;48.90;;;;;;5132723;27;20043;-78
2022/05/18 11:10:24;;;;;;;0.10;0.10;;;33.30;48.50;;;;;;5125656;27;20039;-79
2022/05/18 11:13:15;;;;;;;0.10;0.10;;;33.90;49.60;;;;;;5114293;28;20035;-78
2022/05/18 11:15:46;;;;;;;0.10;0.10;;;33.80;48.10;;;;;;5123514;27;20019;-79
2022/05/18 11:18:25;;;;;;;0.10;0.10;;;33.60;48.40;;;;;;5125662;27;20079;-78
2022/05/18 11:21:26;;;;;;;0.10;0.10;;;33.50;47.30;;;;;;5128606;27;20104;-78
2022/05/18 11:24:10;;;;;;;0.28;0.10;;;33.60;48.20;;;;;;5113556;28;20027;-77
2022/05/18 11:26:39;;;;;;;0.10;0.10;;;33.40;48.40;;;;;;5115144;27;20387;-81
2022/05/18 11:29:21;;;;;;;0.10;0.10;;;33.10;48.80;;;;;;5115645;27;20483;-78
2022/05/18 11:32:08;;;;;;;0.10;0.10;;;33.50;49.00;;;;;;5130156;27;20030;-78
2022/05/18 11:34:36;;;;;;;0.10;0.10;;;32.70;49.20;;;;;;5126170;27;20023;-78
2022/05/18 11:37:21;;;;;;;0.00;0.00;;;32.20;49.20;;;;;;5134046;27;20015;-79
2022/05/18 11:40:05;;;;;;;0.15;0.15;;;32.30;51.00;;;;;;5117672;27;20059;-78
2022/05/18 11:42:36;;;;;;;0.00;0.00;;;32.60;49.60;;;;;;5127949;27;20077;-78
2022/05/18 11:45:07;;;;;;;0.98;0.30;;;33.00;50.60;;;;;;5118374;27;20031;-77
2022/05/18 11:47:46;;;;;;;0.17;0.10;;;32.50;49.70;;;;;;5115739;27;20073;-81
2022/05/18 11:50:14;;;;;;;0.10;0.10;;;32.10;50.10;;;;;;5110530;27;20039;-77
2022/05/18 11:52:43;;;;;;;0.00;0.00;;;31.60;51.60;;;;;;5117037;27;20019;-78
2022/05/18 11:55:42;;;;;;;3.83;0.32;;;31.10;52.80;;;;;;5118442;27;20038;-79
2022/05/18 11:58:49;;;;;;;0.10;0.10;;;31.10;52.90;;;;;;5118626;27;20502;-77
2022/05/18 12:01:49;;;;;;;0.38;0.30;;;31.20;56.20;;;;;;5111133;27;20109;-79
2022/05/18 12:04:39;;;;;;;0.10;0.10;;;31.20;54.70;;;;;;5121584;28;20036;-78
2022/05/18 12:07:57;;;;;;;0.10;0.10;;;30.70;55.30;;;;;;5115810;28;20115;-77
2022/05/18 12:10:41;;;;;;;0.57;0.40;;;30.60;56.20;;;;;;5037873;28;20025;-78
2022/05/18 12:13:24;;;;;;;0.00;0.00;;;30.50;56.90;;;;;;5040363;28;20043;-80
2022/05/18 12:15:59;;;;;;;0.17;0.05;;;30.60;59.50;;;;;;5084494;27;21888;-77
2022/05/18 12:18:42;;;;;;;0.00;0.00;;;30.10;58.20;;;;;;5110191;27;20154;-77
2022/05/18 12:21:22;;;;;;;0.20;0.10;;;30.10;58.70;;;;;;5115177;27;20043;-78
2022/05/18 12:23:52;;;;;;;0.00;0.00;;;29.90;58.60;;;;;;5124964;27;20459;-77
2022/05/18 12:26:21;;;;;;;0.00;0.00;;;30.20;60.40;;;;;;5126135;27;20119;-77
2022/05/18 12:28:48;;;;;;;0.00;0.00;;;29.90;61.10;;;;;;5119987;27;20062;-79
2022/05/18 12:31:14;;;;;;;0.32;0.22;;;29.70;61.10;;;;;;5123282;27;20027;-77
2022/05/18 12:34:00;;;;;;;0.05;0.00;;;29.50;63.60;;;;;;5104623;27;20071;-77
2022/05/18 12:36:45;;;;;;;0.00;0.00;;;29.50;66.50;;;;;;5119854;27;20125;-77
2022/05/18 12:39:18;;;;;;;0.05;0.05;;;29.50;67.20;;;;;;5122686;27;20085;-78
2022/05/18 12:41:48;;;;;;;0.20;0.10;;;29.70;68.80;;;;;;5127156;27;20047;-79
2022/05/18 12:44:39;;;;;;;0.00;0.00;;;29.80;67.10;;;;;;5133045;27;20023;-78
2022/05/18 12:47:25;;;;;;;0.00;0.00;;;29.90;67.10;;;;;;5123421;27;20019;-77
2022/05/18 12:49:57;;;;;;;0.10;0.05;;;30.80;65.90;;;;;;5128970;27;20511;-77
2022/05/18 12:52:38;;;;;;;0.10;0.10;;;30.80;63.70;;;;;;5139176;27;20416;-78
2022/05/18 12:55:39;;;;;;;0.20;0.10;;;31.60;67.70;;;;;;5123659;27;20055;-78
2022/05/18 12:58:10;;;;;;;0.00;0.00;;;31.30;61.60;;;;;;5125612;27;20054;-77
2022/05/18 13:00:45;;;;;;;0.00;0.00;;;31.20;60.30;;;;;;5127968;27;20034;-78
2022/05/18 13:03:11;;;;;;;0.10;0.10;;;31.40;63.20;;;;;;5132670;27;20127;-78
2022/05/18 13:05:45;;;;;;;0.52;0.20;;;31.00;60.20;;;;;;5129625;27;20049;-78
2022/05/18 13:08:19;;;;;;;0.00;0.00;;;30.80;62.10;;;;;;5131818;27;20094;-78
2022/05/18 13:11:19;;;;;;;0.00;0.00;;;30.80;63.70;;;;;;5122913;27;20070;-78
2022/05/18 13:14:04;;;;;;;0.13;0.10;;;31.00;63.50;;;;;;5129531;27;20088;-78
2022/05/18 13:16:39;;;;;;;0.13;0.10;;;31.10;62.50;;;;;;5132951;27;20373;-78
2022/05/18 13:19:18;;;;;;;0.10;0.10;;;31.20;61.90;;;;;;5128235;27;20028;-78
2022/05/18 13:21:47;;;;;;;0.20;0.10;;;31.40;63.80;;;;;;5127250;27;20025;-78
2022/05/18 13:24:24;;;;;;;0.10;0.10;;;31.50;61.50;;;;;;5132096;27;20471;-77
2022/05/18 13:26:50;;;;;;;0.08;0.08;;;31.50;61.70;;;;;;5127633;27;20035;-77
2022/05/18 13:29:21;;;;;;;0.00;0.00;;;31.40;61.30;;;;;;5125384;27;20027;-79
2022/05/18 13:31:51;;;;;;;0.10;0.10;;;31.60;61.10;;;;;;5121215;27;20103;-77
2022/05/18 13:34:24;;;;;;;0.00;0.00;;;31.80;60.50;;;;;;5120886;27;20026;-75
2022/05/18 13:36:56;;;;;;;0.32;0.25;;;31.60;60.30;;;;;;5122231;27;20050;-79
2022/05/18 13:39:29;;;;;;;0.25;0.25;;;31.50;59.30;;;;;;5133706;27;20095;-78
2022/05/18 13:41:55;;;;;;;0.10;0.10;;;31.50;61.90;;;;;;5131148;27;20019;-80
2022/05/18 13:44:26;;;;;;;0.00;0.00;;;31.20;61.60;;;;;;5129111;27;20019;-78
2022/05/18 13:46:53;;;;;;;;;;;31.00;64.20;;;;;;5123673;27;20077;-80
2022/05/18 13:49:21;;;;;;;0.57;0.52;;;30.80;61.70;;;;;;5119604;27;19919;-80
2022/05/18 13:51:52;;;;;;;0.45;0.25;;;30.90;63.80;;;;;;5122662;27;20011;-79